createdAt,value
2017-12-01T00:02:34.855Z,65.60
2017-12-01T00:17:34.720Z,64.46
2017-12-01T00:32:33.705Z,65.76
2017-12-01T00:47:35.075Z,67.14
2017-12-01T01:02:35.055Z,68.64
2017-12-01T01:17:35.490Z,70.37
2017-12-01T01:32:36.914Z,71.55
2017-12-01T01:47:34.327Z,73.25
2017-12-01T02:02:35.470Z,74.72
2017-12-01T02:17:35.229Z,76.04
2017-12-01T02:32:35.149Z,76.49
2017-12-01T03:02:34.714Z,77.58
2017-12-01T03:17:33.966Z,78.02
2017-12-01T03:32:34.287Z,79.26
2017-12-01T03:47:34.762Z,79.64
2017-12-01T04:02:35.825Z,81.22
2017-12-01T04:17:34.149Z,81.65
2017-12-01T04:32:34.024Z,82.18
2017-12-01T04:47:36.920Z,82.59
2017-12-01T05:02:35.192Z,82.82
2017-12-01T05:17:35.152Z,83.55
2017-12-01T05:32:39.239Z,83.58
2017-12-01T05:47:34.876Z,84.06
2017-12-01T06:02:38.372Z,84.14
2017-12-01T06:17:35.023Z,84.25
2017-12-01T06:32:38.552Z,84.48
2017-12-01T06:47:36.380Z,84.92
2017-12-01T07:02:34.491Z,85.38
2017-12-01T07:17:34.715Z,85.19
2017-12-01T07:32:34.831Z,85.48
2017-12-01T07:47:35.027Z,84.29
2017-12-01T08:02:35.199Z,83.58
2017-12-01T08:17:36.461Z,83.50
2017-12-01T08:32:36.078Z,83.59
2017-12-01T08:47:36.931Z,83.83
2017-12-01T09:02:36.911Z,83.60
2017-12-01T09:17:34.703Z,83.61
2017-12-01T09:32:34.545Z,83.74
2017-12-01T09:47:34.990Z,83.84
2017-12-01T10:02:35.181Z,84.10
2017-12-01T10:17:35.625Z,84.00
2017-12-01T10:32:34.957Z,84.43
2017-12-01T10:47:34.082Z,84.64
2017-12-01T11:02:35.775Z,84.71
2017-12-01T11:17:35.166Z,84.77
2017-12-01T11:32:35.113Z,84.96
2017-12-01T11:47:34.319Z,84.95
2017-12-01T12:02:36.483Z,84.92
2017-12-01T12:17:34.151Z,85.10
2017-12-01T12:32:37.369Z,85.18
2017-12-01T12:47:33.793Z,85.19
2017-12-01T13:02:34.483Z,85.16
2017-12-01T13:17:36.436Z,85.30
2017-12-01T13:32:34.562Z,85.32
2017-12-01T13:47:34.947Z,85.58
2017-12-01T14:02:36.437Z,85.69
2017-12-01T14:17:34.870Z,85.77
2017-12-01T14:32:34.795Z,85.96
2017-12-01T14:47:35.108Z,85.88
2017-12-01T15:02:36.413Z,85.39
2017-12-01T15:17:35.008Z,85.23
2017-12-01T15:32:34.932Z,85.81
2017-12-01T15:47:34.339Z,85.99
2017-12-01T16:02:35.357Z,86.07
2017-12-01T16:17:37.344Z,86.17
2017-12-01T16:32:42.333Z,86.24
2017-12-01T16:47:35.529Z,86.10
2017-12-01T17:02:36.506Z,86.04
2017-12-01T17:17:35.088Z,86.05
2017-12-01T17:32:36.412Z,86.14
2017-12-01T17:47:37.821Z,86.04
2017-12-01T18:02:34.737Z,86.00
2017-12-01T18:17:34.651Z,86.13
2017-12-01T18:32:35.686Z,86.09
2017-12-01T18:47:35.078Z,85.98
2017-12-01T19:02:34.444Z,85.74
2017-12-01T19:17:35.976Z,85.72
2017-12-01T19:32:36.924Z,85.73
2017-12-01T19:47:35.598Z,85.80
2017-12-01T20:02:35.011Z,85.40
2017-12-01T20:17:35.180Z,84.89
2017-12-01T20:32:35.133Z,84.82
2017-12-01T20:47:34.279Z,85.07
2017-12-01T21:02:36.578Z,85.30
2017-12-01T21:17:37.478Z,85.34
2017-12-01T21:32:34.946Z,85.38
2017-12-01T21:47:36.738Z,85.37
2017-12-01T22:02:37.409Z,85.12
2017-12-01T22:17:34.708Z,85.17
2017-12-01T22:32:36.548Z,85.13
2017-12-01T22:47:35.328Z,84.95
2017-12-01T23:02:34.920Z,85.03
2017-12-01T23:17:34.079Z,84.91
2017-12-01T23:32:34.719Z,84.38
2017-12-01T23:47:35.731Z,84.06
